sensor_id;sensor_type;location;lat;lon;timestamp;pressure;altitude;pressure_sealevel;temperature;humidity
47883;BME280;37739;50.350;7.578;2023-05-24T00:02:02;100344.69;;;11.90;60.04
47883;BME280;37739;50.350;7.578;2023-05-24T00:04:30;100348.72;;;11.85;60.45
47883;BME280;37739;50.350;7.578;2023-05-24T00:06:56;100334.31;;;11.67;60.79
47883;BME280;37739;50.350;7.578;2023-05-24T00:09:22;100355.47;;;11.62;61.16
47883;BME280;37739;50.350;7.578;2023-05-24T00:11:47;100346.38;;;11.70;60.65
47883;BME280;37739;50.350;7.578;2023-05-24T00:14:15;100354.22;;;11.52;61.12
47883;BME280;37739;50.350;7.578;2023-05-24T00:16:40;100356.72;;;11.50;61.17
47883;BME280;37739;50.350;7.578;2023-05-24T00:19:06;100353.28;;;11.50;61.31
47883;BME280;37739;50.350;7.578;2023-05-24T00:21:31;100355.78;;;11.48;61.03
47883;BME280;37739;50.350;7.578;2023-05-24T00:23:59;100355.69;;;11.45;61.42
47883;BME280;37739;50.350;7.578;2023-05-24T00:26:29;100354.97;;;11.49;61.27
47883;BME280;37739;50.350;7.578;2023-05-24T00:28:54;100357.34;;;11.45;61.69
47883;BME280;37739;50.350;7.578;2023-05-24T00:31:20;100355.84;;;11.50;61.63
47883;BME280;37739;50.350;7.578;2023-05-24T00:33:45;100362.06;;;11.55;60.99
47883;BME280;37739;50.350;7.578;2023-05-24T00:36:10;100360.91;;;11.48;61.79
47883;BME280;37739;50.350;7.578;2023-05-24T00:38:36;100358.78;;;11.38;61.78
47883;BME280;37739;50.350;7.578;2023-05-24T00:41:01;100358.47;;;11.30;61.95
47883;BME280;37739;50.350;7.578;2023-05-24T00:43:29;100358.31;;;11.27;61.76
47883;BME280;37739;50.350;7.578;2023-05-24T00:46:16;100365.97;;;11.06;62.61
47883;BME280;37739;50.350;7.578;2023-05-24T00:48:44;100363.53;;;11.09;62.46
47883;BME280;37739;50.350;7.578;2023-05-24T00:51:11;100353.59;;;11.17;62.28
47883;BME280;37739;50.350;7.578;2023-05-24T00:53:40;100360.69;;;11.23;61.93
47883;BME280;37739;50.350;7.578;2023-05-24T00:56:08;100365.84;;;11.03;61.83
47883;BME280;37739;50.350;7.578;2023-05-24T00:58:34;100362.19;;;10.98;62.12
47883;BME280;37739;50.350;7.578;2023-05-24T01:01:02;100359.53;;;10.96;61.92
47883;BME280;37739;50.350;7.578;2023-05-24T01:03:31;100359.69;;;10.80;61.49
47883;BME280;37739;50.350;7.578;2023-05-24T01:05:59;100357.50;;;10.70;61.15
47883;BME280;37739;50.350;7.578;2023-05-24T01:11:24;100363.53;;;10.70;61.07
47883;BME280;37739;50.350;7.578;2023-05-24T01:14:21;100354.59;;;10.62;61.63
47883;BME280;37739;50.350;7.578;2023-05-24T01:17:03;100357.84;;;10.77;61.26
47883;BME280;37739;50.350;7.578;2023-05-24T01:22:37;100354.47;;;10.78;61.25
47883;BME280;37739;50.350;7.578;2023-05-24T01:27:44;100356.78;;;10.92;61.34
47883;BME280;37739;50.350;7.578;2023-05-24T01:30:11;100356.09;;;10.76;61.73
47883;BME280;37739;50.350;7.578;2023-05-24T01:32:37;100358.69;;;10.58;62.30
47883;BME280;37739;50.350;7.578;2023-05-24T01:35:03;100353.50;;;10.57;62.25
47883;BME280;37739;50.350;7.578;2023-05-24T01:37:28;100352.63;;;10.56;62.00
47883;BME280;37739;50.350;7.578;2023-05-24T01:39:56;100351.31;;;10.47;62.24
47883;BME280;37739;50.350;7.578;2023-05-24T01:45:18;100348.81;;;10.48;62.57
47883;BME280;37739;50.350;7.578;2023-05-24T01:50:34;100353.41;;;10.36;62.78
47883;BME280;37739;50.350;7.578;2023-05-24T01:53:06;100358.88;;;10.44;62.12
47883;BME280;37739;50.350;7.578;2023-05-24T01:55:33;100362.91;;;10.38;62.29
47883;BME280;37739;50.350;7.578;2023-05-24T01:58:04;100365.66;;;10.25;62.80
47883;BME280;37739;50.350;7.578;2023-05-24T02:00:33;100364.66;;;10.21;62.98
47883;BME280;37739;50.350;7.578;2023-05-24T02:03:00;100365.31;;;10.17;63.10
47883;BME280;37739;50.350;7.578;2023-05-24T02:05:28;100364.88;;;10.26;63.20
47883;BME280;37739;50.350;7.578;2023-05-24T02:07:58;100369.88;;;10.05;63.35
47883;BME280;37739;50.350;7.578;2023-05-24T02:10:23;100365.81;;;10.10;63.75
47883;BME280;37739;50.350;7.578;2023-05-24T02:12:49;100364.25;;;10.30;62.93
47883;BME280;37739;50.350;7.578;2023-05-24T02:15:14;100358.44;;;10.34;62.75
47883;BME280;37739;50.350;7.578;2023-05-24T02:17:40;100371.81;;;10.29;62.93
47883;BME280;37739;50.350;7.578;2023-05-24T02:20:09;100373.22;;;10.04;63.97
47883;BME280;37739;50.350;7.578;2023-05-24T02:22:34;100369.94;;;10.07;63.98
47883;BME280;37739;50.350;7.578;2023-05-24T02:25:02;100369.72;;;10.20;63.78
47883;BME280;37739;50.350;7.578;2023-05-24T02:27:28;100368.88;;;10.37;63.19
47883;BME280;37739;50.350;7.578;2023-05-24T02:29:55;100372.22;;;10.18;63.59
47883;BME280;37739;50.350;7.578;2023-05-24T02:32:21;100366.69;;;10.29;63.31
47883;BME280;37739;50.350;7.578;2023-05-24T02:34:46;100369.56;;;10.17;63.62
47883;BME280;37739;50.350;7.578;2023-05-24T02:37:12;100366.50;;;10.24;63.56
47883;BME280;37739;50.350;7.578;2023-05-24T02:39:39;100359.69;;;10.25;63.46
47883;BME280;37739;50.350;7.578;2023-05-24T02:42:05;100353.63;;;10.05;64.08
47883;BME280;37739;50.350;7.578;2023-05-24T02:44:31;100352.34;;;9.96;64.61
47883;BME280;37739;50.350;7.578;2023-05-24T02:46:58;100350.94;;;9.85;65.04
47883;BME280;37739;50.350;7.578;2023-05-24T02:49:24;100354.03;;;9.96;64.82
47883;BME280;37739;50.350;7.578;2023-05-24T02:51:52;100350.31;;;9.89;65.11
47883;BME280;37739;50.350;7.578;2023-05-24T02:54:20;100349.06;;;9.99;64.63
47883;BME280;37739;50.350;7.578;2023-05-24T02:56:48;100347.00;;;10.10;64.32
47883;BME280;37739;50.350;7.578;2023-05-24T02:59:14;100343.94;;;9.99;64.32
47883;BME280;37739;50.350;7.578;2023-05-24T03:01:41;100344.44;;;9.92;64.56
47883;BME280;37739;50.350;7.578;2023-05-24T03:04:07;100343.03;;;9.80;64.65
47883;BME280;37739;50.350;7.578;2023-05-24T03:06:32;100343.22;;;9.83;64.85
47883;BME280;37739;50.350;7.578;2023-05-24T03:09:00;100343.22;;;9.83;64.63
47883;BME280;37739;50.350;7.578;2023-05-24T03:11:25;100339.97;;;9.88;64.91
47883;BME280;37739;50.350;7.578;2023-05-24T03:13:53;100334.13;;;9.72;65.31
47883;BME280;37739;50.350;7.578;2023-05-24T03:16:18;100339.56;;;9.62;65.49
47883;BME280;37739;50.350;7.578;2023-05-24T03:18:45;100342.78;;;9.58;65.57
47883;BME280;37739;50.350;7.578;2023-05-24T03:21:10;100345.72;;;9.66;65.62
47883;BME280;37739;50.350;7.578;2023-05-24T03:23:35;100341.84;;;9.56;66.12
47883;BME280;37739;50.350;7.578;2023-05-24T03:26:01;100334.06;;;9.54;66.12
47883;BME280;37739;50.350;7.578;2023-05-24T03:28:29;100342.94;;;9.61;66.09
47883;BME280;37739;50.350;7.578;2023-05-24T03:30:54;100343.06;;;9.46;66.26
47883;BME280;37739;50.350;7.578;2023-05-24T03:33:19;100337.06;;;9.46;66.34
47883;BME280;37739;50.350;7.578;2023-05-24T03:35:45;100352.25;;;9.42;66.48
47883;BME280;37739;50.350;7.578;2023-05-24T03:38:10;100347.97;;;9.25;67.03
47883;BME280;37739;50.350;7.578;2023-05-24T03:40:36;100348.78;;;9.24;67.57
47883;BME280;37739;50.350;7.578;2023-05-24T03:43:04;100352.16;;;9.07;67.65
47883;BME280;37739;50.350;7.578;2023-05-24T03:45:30;100350.69;;;9.12;67.71
47883;BME280;37739;50.350;7.578;2023-05-24T03:47:55;100348.63;;;9.21;67.51
47883;BME280;37739;50.350;7.578;2023-05-24T03:50:20;100340.78;;;9.18;67.69
47883;BME280;37739;50.350;7.578;2023-05-24T03:52:48;100345.50;;;9.27;67.09
47883;BME280;37739;50.350;7.578;2023-05-24T03:55:17;100339.91;;;9.17;67.30
47883;BME280;37739;50.350;7.578;2023-05-24T03:57:47;100349.84;;;9.28;66.91
47883;BME280;37739;50.350;7.578;2023-05-24T04:00:12;100345.81;;;9.33;67.04
47883;BME280;37739;50.350;7.578;2023-05-24T04:02:38;100350.78;;;9.30;67.16
47883;BME280;37739;50.350;7.578;2023-05-24T04:05:05;100349.56;;;9.23;67.97
47883;BME280;37739;50.350;7.578;2023-05-24T04:07:35;100351.91;;;9.18;67.94
47883;BME280;37739;50.350;7.578;2023-05-24T04:10:07;100361.75;;;9.11;67.86
47883;BME280;37739;50.350;7.578;2023-05-24T04:12:35;100369.00;;;9.19;67.60
47883;BME280;37739;50.350;7.578;2023-05-24T04:15:02;100379.03;;;9.15;68.00
47883;BME280;37739;50.350;7.578;2023-05-24T04:17:27;100384.47;;;9.04;68.55
47883;BME280;37739;50.350;7.578;2023-05-24T04:19:59;100381.53;;;8.97;69.31
47883;BME280;37739;50.350;7.578;2023-05-24T04:22:24;100383.56;;;9.04;69.35
47883;BME280;37739;50.350;7.578;2023-05-24T04:24:49;100377.66;;;9.21;68.85
47883;BME280;37739;50.350;7.578;2023-05-24T04:27:15;100377.25;;;9.30;68.19
47883;BME280;37739;50.350;7.578;2023-05-24T04:29:43;100378.22;;;9.32;68.16
47883;BME280;37739;50.350;7.578;2023-05-24T04:32:09;100365.63;;;9.37;68.12
47883;BME280;37739;50.350;7.578;2023-05-24T04:34:34;100372.06;;;9.45;67.20
47883;BME280;37739;50.350;7.578;2023-05-24T04:37:01;100362.75;;;9.47;67.20
47883;BME280;37739;50.350;7.578;2023-05-24T04:39:29;100366.38;;;9.34;67.62
47883;BME280;37739;50.350;7.578;2023-05-24T04:41:57;100362.84;;;9.32;67.88
47883;BME280;37739;50.350;7.578;2023-05-24T04:44:26;100367.03;;;9.30;68.44
47883;BME280;37739;50.350;7.578;2023-05-24T04:46:52;100377.34;;;9.32;68.25
47883;BME280;37739;50.350;7.578;2023-05-24T04:49:17;100375.47;;;9.29;68.13
47883;BME280;37739;50.350;7.578;2023-05-24T04:51:43;100388.25;;;9.28;68.70
47883;BME280;37739;50.350;7.578;2023-05-24T04:54:11;100381.97;;;9.39;67.71
47883;BME280;37739;50.350;7.578;2023-05-24T04:56:37;100381.00;;;9.53;67.32
47883;BME280;37739;50.350;7.578;2023-05-24T04:59:06;100369.72;;;9.50;67.44
47883;BME280;37739;50.350;7.578;2023-05-24T05:01:32;100379.56;;;9.58;67.16
47883;BME280;37739;50.350;7.578;2023-05-24T05:03:58;100381.47;;;9.62;66.73
47883;BME280;37739;50.350;7.578;2023-05-24T05:06:23;100387.28;;;9.60;66.95
47883;BME280;37739;50.350;7.578;2023-05-24T05:08:50;100392.97;;;9.71;66.40
47883;BME280;37739;50.350;7.578;2023-05-24T05:11:16;100397.91;;;9.68;66.36
47883;BME280;37739;50.350;7.578;2023-05-24T05:13:42;100402.75;;;9.61;66.47
47883;BME280;37739;50.350;7.578;2023-05-24T05:16:08;100401.19;;;9.47;67.00
47883;BME280;37739;50.350;7.578;2023-05-24T05:18:33;100409.00;;;9.50;67.32
47883;BME280;37739;50.350;7.578;2023-05-24T05:20:58;100403.16;;;9.53;67.32
47883;BME280;37739;50.350;7.578;2023-05-24T05:23:26;100405.38;;;9.63;66.78
47883;BME280;37739;50.350;7.578;2023-05-24T05:25:51;100404.81;;;9.52;66.46
47883;BME280;37739;50.350;7.578;2023-05-24T05:28:19;100409.31;;;9.56;66.58
47883;BME280;37739;50.350;7.578;2023-05-24T05:30:47;100411.47;;;9.65;66.39
47883;BME280;37739;50.350;7.578;2023-05-24T05:33:12;100410.16;;;9.73;66.00
47883;BME280;37739;50.350;7.578;2023-05-24T05:35:43;100405.56;;;9.50;66.72
47883;BME280;37739;50.350;7.578;2023-05-24T05:38:08;100405.09;;;9.40;66.96
47883;BME280;37739;50.350;7.578;2023-05-24T05:40:33;100411.00;;;9.56;67.17
47883;BME280;37739;50.350;7.578;2023-05-24T05:42:59;100428.63;;;9.50;66.59
47883;BME280;37739;50.350;7.578;2023-05-24T05:45:27;100423.50;;;9.33;67.72
47883;BME280;37739;50.350;7.578;2023-05-24T05:47:52;100428.91;;;9.56;67.49
47883;BME280;37739;50.350;7.578;2023-05-24T05:50:17;100427.97;;;9.54;67.52
47883;BME280;37739;50.350;7.578;2023-05-24T05:52:45;100431.19;;;9.50;68.13
47883;BME280;37739;50.350;7.578;2023-05-24T05:55:11;100436.53;;;9.54;67.10
47883;BME280;37739;50.350;7.578;2023-05-24T05:57:38;100439.41;;;9.44;67.28
47883;BME280;37739;50.350;7.578;2023-05-24T06:00:06;100438.88;;;9.50;67.55
47883;BME280;37739;50.350;7.578;2023-05-24T06:02:32;100442.28;;;9.50;67.82
47883;BME280;37739;50.350;7.578;2023-05-24T06:04:57;100438.84;;;9.66;67.50
47883;BME280;37739;50.350;7.578;2023-05-24T06:07:22;100429.50;;;9.85;66.69
47883;BME280;37739;50.350;7.578;2023-05-24T06:09:48;100431.69;;;9.77;66.36
47883;BME280;37739;50.350;7.578;2023-05-24T06:12:15;100433.38;;;9.76;66.97
47883;BME280;37739;50.350;7.578;2023-05-24T06:14:43;100431.03;;;9.81;66.60
47883;BME280;37739;50.350;7.578;2023-05-24T06:17:10;100440.41;;;9.97;66.06
47883;BME280;37739;50.350;7.578;2023-05-24T06:19:36;100435.41;;;10.00;65.77
47883;BME280;37739;50.350;7.578;2023-05-24T06:22:02;100434.03;;;10.07;65.69
47883;BME280;37739;50.350;7.578;2023-05-24T06:24:27;100426.72;;;10.14;64.90
47883;BME280;37739;50.350;7.578;2023-05-24T06:26:56;100437.34;;;10.22;65.33
47883;BME280;37739;50.350;7.578;2023-05-24T06:29:21;100430.81;;;10.11;65.28
47883;BME280;37739;50.350;7.578;2023-05-24T06:31:49;100428.84;;;10.23;65.12
47883;BME280;37739;50.350;7.578;2023-05-24T06:34:15;100427.69;;;10.34;65.19
47883;BME280;37739;50.350;7.578;2023-05-24T06:36:42;100436.06;;;10.30;64.69
47883;BME280;37739;50.350;7.578;2023-05-24T06:39:08;100427.38;;;10.28;63.61
47883;BME280;37739;50.350;7.578;2023-05-24T06:41:36;100422.06;;;10.41;63.77
47883;BME280;37739;50.350;7.578;2023-05-24T06:44:03;100420.88;;;10.35;63.53
47883;BME280;37739;50.350;7.578;2023-05-24T06:46:28;100410.59;;;10.17;62.89
47883;BME280;37739;50.350;7.578;2023-05-24T06:48:53;100418.22;;;10.33;62.83
47883;BME280;37739;50.350;7.578;2023-05-24T06:51:21;100411.94;;;10.45;62.29
47883;BME280;37739;50.350;7.578;2023-05-24T06:53:46;100417.41;;;10.70;62.26
47883;BME280;37739;50.350;7.578;2023-05-24T06:56:14;100414.56;;;11.02;62.06
47883;BME280;37739;50.350;7.578;2023-05-24T06:58:42;100405.69;;;10.95;60.64
47883;BME280;37739;50.350;7.578;2023-05-24T07:01:10;100405.16;;;11.02;61.17
47883;BME280;37739;50.350;7.578;2023-05-24T07:03:38;100405.84;;;11.17;60.50
47883;BME280;37739;50.350;7.578;2023-05-24T07:06:03;100405.16;;;11.22;60.32
47883;BME280;37739;50.350;7.578;2023-05-24T07:08:31;100401.09;;;11.27;59.95
47883;BME280;37739;50.350;7.578;2023-05-24T07:10:56;100401.16;;;11.48;59.76
47883;BME280;37739;50.350;7.578;2023-05-24T07:13:25;100410.44;;;11.44;59.28
47883;BME280;37739;50.350;7.578;2023-05-24T07:15:50;100425.91;;;11.46;59.80
47883;BME280;37739;50.350;7.578;2023-05-24T07:18:15;100435.00;;;11.37;59.83
47883;BME280;37739;50.350;7.578;2023-05-24T07:20:41;100432.31;;;11.55;59.54
47883;BME280;37739;50.350;7.578;2023-05-24T07:23:08;100445.72;;;11.48;59.38
47883;BME280;37739;50.350;7.578;2023-05-24T07:25:38;100452.06;;;11.56;59.78
47883;BME280;37739;50.350;7.578;2023-05-24T07:28:03;100451.09;;;11.54;59.75
47883;BME280;37739;50.350;7.578;2023-05-24T07:30:29;100444.75;;;11.66;59.60
47883;BME280;37739;50.350;7.578;2023-05-24T07:32:55;100448.16;;;11.65;58.55
47883;BME280;37739;50.350;7.578;2023-05-24T07:35:20;100452.34;;;11.63;58.53
47883;BME280;37739;50.350;7.578;2023-05-24T07:37:46;100446.53;;;11.67;58.92
47883;BME280;37739;50.350;7.578;2023-05-24T07:40:14;100450.47;;;11.79;59.32
47883;BME280;37739;50.350;7.578;2023-05-24T07:42:40;100457.50;;;12.03;58.01
47883;BME280;37739;50.350;7.578;2023-05-24T07:45:07;100461.75;;;12.03;57.14
47883;BME280;37739;50.350;7.578;2023-05-24T07:47:38;100444.13;;;11.71;55.79
47883;BME280;37739;50.350;7.578;2023-05-24T07:50:03;100449.97;;;11.48;58.25
47883;BME280;37739;50.350;7.578;2023-05-24T07:52:31;100446.38;;;11.64;57.73
47883;BME280;37739;50.350;7.578;2023-05-24T07:54:56;100449.47;;;11.56;57.87
47883;BME280;37739;50.350;7.578;2023-05-24T07:57:21;100451.41;;;11.61;57.43
47883;BME280;37739;50.350;7.578;2023-05-24T07:59:47;100446.88;;;11.55;57.23
47883;BME280;37739;50.350;7.578;2023-05-24T08:02:13;100457.19;;;11.56;57.51
47883;BME280;37739;50.350;7.578;2023-05-24T08:04:42;100447.47;;;11.69;56.81
47883;BME280;37739;50.350;7.578;2023-05-24T08:07:10;100455.81;;;12.04;56.57
47883;BME280;37739;50.350;7.578;2023-05-24T08:09:38;100444.03;;;12.30;56.95
47883;BME280;37739;50.350;7.578;2023-05-24T08:12:07;100457.38;;;12.21;55.20
47883;BME280;37739;50.350;7.578;2023-05-24T08:14:33;100453.31;;;12.05;56.23
47883;BME280;37739;50.350;7.578;2023-05-24T08:17:00;100454.19;;;11.86;56.23
47883;BME280;37739;50.350;7.578;2023-05-24T08:19:26;100461.06;;;11.87;55.70
47883;BME280;37739;50.350;7.578;2023-05-24T08:21:54;100465.00;;;11.98;56.34
47883;BME280;37739;50.350;7.578;2023-05-24T08:24:23;100469.44;;;12.01;56.23
47883;BME280;37739;50.350;7.578;2023-05-24T08:26:48;100460.94;;;12.04;56.13
47883;BME280;37739;50.350;7.578;2023-05-24T08:29:18;100461.66;;;12.00;56.68
47883;BME280;37739;50.350;7.578;2023-05-24T08:31:45;100471.53;;;11.90;56.89
47883;BME280;37739;50.350;7.578;2023-05-24T08:34:11;100473.75;;;12.02;56.90
47883;BME280;37739;50.350;7.578;2023-05-24T08:36:36;100483.41;;;12.08;57.04
47883;BME280;37739;50.350;7.578;2023-05-24T08:39:03;100482.22;;;12.21;56.31
47883;BME280;37739;50.350;7.578;2023-05-24T08:41:34;100490.31;;;12.09;56.63
47883;BME280;37739;50.350;7.578;2023-05-24T08:44:04;100481.53;;;12.25;55.96
47883;BME280;37739;50.350;7.578;2023-05-24T08:46:34;100480.03;;;12.30;55.07
47883;BME280;37739;50.350;7.578;2023-05-24T08:49:00;100482.91;;;11.95;55.60
47883;BME280;37739;50.350;7.578;2023-05-24T08:51:30;100483.16;;;12.02;56.02
47883;BME280;37739;50.350;7.578;2023-05-24T08:53:59;100483.97;;;12.22;56.32
47883;BME280;37739;50.350;7.578;2023-05-24T08:56:26;100471.34;;;12.28;55.72
47883;BME280;37739;50.350;7.578;2023-05-24T08:58:53;100460.50;;;12.14;56.54
47883;BME280;37739;50.350;7.578;2023-05-24T09:01:19;100459.97;;;12.65;55.63
47883;BME280;37739;50.350;7.578;2023-05-24T09:03:45;100448.81;;;13.32;55.03
47883;BME280;37739;50.350;7.578;2023-05-24T09:06:12;100452.75;;;13.72;53.02
47883;BME280;37739;50.350;7.578;2023-05-24T09:08:41;100455.44;;;13.27;53.05
47883;BME280;37739;50.350;7.578;2023-05-24T09:11:07;100458.66;;;13.44;53.13
47883;BME280;37739;50.350;7.578;2023-05-24T09:13:34;100451.22;;;13.77;52.69
47883;BME280;37739;50.350;7.578;2023-05-24T09:16:02;100451.59;;;14.13;50.98
47883;BME280;37739;50.350;7.578;2023-05-24T09:18:27;100461.38;;;14.24;49.24
47883;BME280;37739;50.350;7.578;2023-05-24T09:20:55;100451.84;;;14.21;48.08
47883;BME280;37739;50.350;7.578;2023-05-24T09:23:21;100445.81;;;14.48;49.00
47883;BME280;37739;50.350;7.578;2023-05-24T09:25:47;100439.44;;;14.64;48.62
47883;BME280;37739;50.350;7.578;2023-05-24T09:28:13;100437.34;;;14.79;47.98
47883;BME280;37739;50.350;7.578;2023-05-24T09:30:45;100436.88;;;14.64;47.87
47883;BME280;37739;50.350;7.578;2023-05-24T09:33:27;100422.00;;;14.57;48.23
47883;BME280;37739;50.350;7.578;2023-05-24T09:35:56;100423.38;;;14.74;48.02
47883;BME280;37739;50.350;7.578;2023-05-24T09:38:25;100412.81;;;14.94;47.90
47883;BME280;37739;50.350;7.578;2023-05-24T09:41:07;100410.88;;;15.17;46.74
47883;BME280;37739;50.350;7.578;2023-05-24T09:43:33;100416.69;;;15.40;47.25
47883;BME280;37739;50.350;7.578;2023-05-24T09:46:03;100414.00;;;15.70;47.14
47883;BME280;37739;50.350;7.578;2023-05-24T09:48:30;100416.59;;;15.68;46.43
47883;BME280;37739;50.350;7.578;2023-05-24T09:51:02;100416.28;;;15.26;46.34
47883;BME280;37739;50.350;7.578;2023-05-24T09:53:35;100421.94;;;15.12;46.26
47883;BME280;37739;50.350;7.578;2023-05-24T09:56:05;100419.13;;;15.05;46.83
47883;BME280;37739;50.350;7.578;2023-05-24T09:58:34;100412.81;;;14.94;47.96
47883;BME280;37739;50.350;7.578;2023-05-24T10:01:07;100404.72;;;15.45;47.33
47883;BME280;37739;50.350;7.578;2023-05-24T10:03:35;100401.19;;;15.73;46.11
47883;BME280;37739;50.350;7.578;2023-05-24T10:06:05;100405.47;;;16.06;46.08
47883;BME280;37739;50.350;7.578;2023-05-24T10:08:34;100405.56;;;16.10;45.12
47883;BME280;37739;50.350;7.578;2023-05-24T10:11:06;100402.66;;;16.33;44.13
47883;BME280;37739;50.350;7.578;2023-05-24T10:13:34;100400.88;;;16.70;43.25
47883;BME280;37739;50.350;7.578;2023-05-24T10:16:03;100410.16;;;16.21;43.67
47883;BME280;37739;50.350;7.578;2023-05-24T10:18:28;100393.16;;;15.64;45.21
47883;BME280;37739;50.350;7.578;2023-05-24T10:20:54;100392.69;;;15.77;45.75
47883;BME280;37739;50.350;7.578;2023-05-24T10:23:23;100392.50;;;15.38;45.92
47883;BME280;37739;50.350;7.578;2023-05-24T10:25:51;100391.06;;;15.17;46.64
47883;BME280;37739;50.350;7.578;2023-05-24T10:28:21;100386.84;;;15.52;46.99
47883;BME280;37739;50.350;7.578;2023-05-24T10:31:12;100395.44;;;15.51;46.09
47883;BME280;37739;50.350;7.578;2023-05-24T10:33:41;100395.50;;;15.55;47.17
47883;BME280;37739;50.350;7.578;2023-05-24T10:36:12;100393.94;;;15.60;46.20
47883;BME280;37739;50.350;7.578;2023-05-24T10:38:38;100386.94;;;15.56;46.15
47883;BME280;37739;50.350;7.578;2023-05-24T10:41:05;100375.63;;;15.52;45.67
47883;BME280;37739;50.350;7.578;2023-05-24T10:43:34;100380.38;;;15.68;45.80
47883;BME280;37739;50.350;7.578;2023-05-24T10:46:07;100377.75;;;15.35;44.46
47883;BME280;37739;50.350;7.578;2023-05-24T10:48:38;100379.38;;;15.31;44.58
47883;BME280;37739;50.350;7.578;2023-05-24T10:51:37;100378.00;;;15.44;45.07
47883;BME280;37739;50.350;7.578;2023-05-24T10:54:10;100375.09;;;15.65;44.68
47883;BME280;37739;50.350;7.578;2023-05-24T10:56:45;100379.22;;;15.59;45.81
47883;BME280;37739;50.350;7.578;2023-05-24T10:59:43;100378.13;;;15.49;45.03
47883;BME280;37739;50.350;7.578;2023-05-24T11:02:09;100372.41;;;15.61;45.24
47883;BME280;37739;50.350;7.578;2023-05-24T11:04:47;100360.53;;;15.36;44.89
47883;BME280;37739;50.350;7.578;2023-05-24T11:07:14;100366.72;;;15.74;45.05
47883;BME280;37739;50.350;7.578;2023-05-24T11:09:40;100370.75;;;15.64;44.35
47883;BME280;37739;50.350;7.578;2023-05-24T11:12:16;100361.81;;;15.51;45.10
47883;BME280;37739;50.350;7.578;2023-05-24T11:14:50;100368.69;;;15.51;44.68
47883;BME280;37739;50.350;7.578;2023-05-24T11:17:19;100370.06;;;15.06;45.31
47883;BME280;37739;50.350;7.578;2023-05-24T11:22:12;100374.00;;;14.92;45.44
47883;BME280;37739;50.350;7.578;2023-05-24T11:24:40;100369.75;;;14.94;45.88
47883;BME280;37739;50.350;7.578;2023-05-24T11:27:09;100371.03;;;14.80;44.59
47883;BME280;37739;50.350;7.578;2023-05-24T11:29:46;100373.41;;;14.72;45.41
47883;BME280;37739;50.350;7.578;2023-05-24T11:32:17;100364.88;;;14.75;45.88
47883;BME280;37739;50.350;7.578;2023-05-24T11:34:47;100368.88;;;14.94;45.83
47883;BME280;37739;50.350;7.578;2023-05-24T11:37:12;100362.22;;;15.02;45.55
47883;BME280;37739;50.350;7.578;2023-05-24T11:39:39;100363.00;;;14.99;46.39
47883;BME280;37739;50.350;7.578;2023-05-24T11:42:06;100364.78;;;15.02;45.20
47883;BME280;37739;50.350;7.578;2023-05-24T11:44:35;100360.81;;;15.13;45.89
47883;BME280;37739;50.350;7.578;2023-05-24T11:47:06;100366.03;;;15.15;45.65
47883;BME280;37739;50.350;7.578;2023-05-24T11:49:31;100366.53;;;15.03;44.40
47883;BME280;37739;50.350;7.578;2023-05-24T11:51:58;100361.88;;;15.53;45.28
47883;BME280;37739;50.350;7.578;2023-05-24T11:54:24;100364.75;;;15.65;44.04
47883;BME280;37739;50.350;7.578;2023-05-24T11:56:55;100359.19;;;15.50;44.19
47883;BME280;37739;50.350;7.578;2023-05-24T11:59:29;100363.16;;;15.37;44.71
47883;BME280;37739;50.350;7.578;2023-05-24T12:02:04;100361.50;;;15.39;44.60
47883;BME280;37739;50.350;7.578;2023-05-24T12:04:31;100360.81;;;15.13;45.28
47883;BME280;37739;50.350;7.578;2023-05-24T12:06:57;100356.03;;;14.97;45.66
47883;BME280;37739;50.350;7.578;2023-05-24T12:09:26;100365.50;;;14.96;46.02
47883;BME280;37739;50.350;7.578;2023-05-24T12:11:56;100366.28;;;14.94;46.15
47883;BME280;37739;50.350;7.578;2023-05-24T12:14:24;100366.47;;;15.00;46.08
47883;BME280;37739;50.350;7.578;2023-05-24T12:16:53;100357.03;;;15.02;44.89
47883;BME280;37739;50.350;7.578;2023-05-24T12:19:20;100359.25;;;15.20;45.36
47883;BME280;37739;50.350;7.578;2023-05-24T12:21:53;100362.19;;;15.34;45.85
47883;BME280;37739;50.350;7.578;2023-05-24T12:24:21;100361.34;;;15.01;45.53
47883;BME280;37739;50.350;7.578;2023-05-24T12:26:47;100364.16;;;15.09;46.19
47883;BME280;37739;50.350;7.578;2023-05-24T12:29:15;100362.75;;;15.22;45.76
47883;BME280;37739;50.350;7.578;2023-05-24T12:31:46;100352.78;;;15.36;46.17
47883;BME280;37739;50.350;7.578;2023-05-24T12:34:19;100358.97;;;15.09;46.79
47883;BME280;37739;50.350;7.578;2023-05-24T12:36:47;100353.81;;;15.10;46.68
47883;BME280;37739;50.350;7.578;2023-05-24T12:39:26;100356.56;;;15.15;46.21
47883;BME280;37739;50.350;7.578;2023-05-24T12:42:02;100352.50;;;15.25;46.36
47883;BME280;37739;50.350;7.578;2023-05-24T12:44:36;100355.09;;;15.25;45.74
47883;BME280;37739;50.350;7.578;2023-05-24T12:47:05;100352.72;;;15.32;45.81
47883;BME280;37739;50.350;7.578;2023-05-24T12:49:31;100357.41;;;15.47;45.20
47883;BME280;37739;50.350;7.578;2023-05-24T12:51:57;100354.25;;;15.26;45.80
47883;BME280;37739;50.350;7.578;2023-05-24T12:54:25;100348.53;;;15.06;45.81
47883;BME280;37739;50.350;7.578;2023-05-24T12:56:52;100356.34;;;14.77;46.58
47883;BME280;37739;50.350;7.578;2023-05-24T12:59:17;100341.50;;;15.00;46.23
47883;BME280;37739;50.350;7.578;2023-05-24T13:01:43;100344.28;;;15.08;45.30
47883;BME280;37739;50.350;7.578;2023-05-24T13:04:14;100347.94;;;15.15;45.53
47883;BME280;37739;50.350;7.578;2023-05-24T13:06:42;100353.66;;;15.36;45.66
47883;BME280;37739;50.350;7.578;2023-05-24T13:09:07;100350.59;;;15.84;44.17
47883;BME280;37739;50.350;7.578;2023-05-24T13:11:34;100353.03;;;16.13;43.54
47883;BME280;37739;50.350;7.578;2023-05-24T13:14:02;100350.66;;;15.86;44.08